Time;durP1;ratioP1;P1;durP2;ratioP2;P2;SDS_P1;SDS_P2;PMS_P1;PMS_P2;Temp;Humidity;BMP_temperature;BMP_pressure;BME280_temperature;BME280_humidity;BME280_pressure;Samples;Min_cycle;Max_cycle;Signal;HPM_P1;HPM_P2
2022/05/19 00:01:01;;;;;;;3.28;3.08;;;;;;;18.56;70.79;96954.88;5078630;28;20227;-50
2022/05/19 00:03:28;;;;;;;3.55;3.15;;;;;;;18.56;70.68;96962.94;5078825;28;20207;-49
2022/05/19 00:05:58;;;;;;;5.43;3.28;;;;;;;18.51;71.18;96955.44;5071811;28;20229;-49
2022/05/19 00:08:24;;;;;;;4.00;3.10;;;;;;;18.44;71.22;96959.00;5068026;28;20652;-49
2022/05/19 00:10:51;;;;;;;3.55;3.20;;;;;;;18.37;72.28;96957.06;5065671;28;20211;-49
2022/05/19 00:13:18;;;;;;;3.55;3.25;;;;;;;18.41;71.72;96960.22;5047291;28;20215;-49
2022/05/19 00:15:45;;;;;;;3.30;3.00;;;;;;;18.32;72.48;96950.59;5057491;28;20230;-50
2022/05/19 00:18:12;;;;;;;5.53;3.20;;;;;;;18.24;73.36;96961.41;5057692;28;20211;-49
2022/05/19 00:20:38;;;;;;;3.70;3.28;;;;;;;18.24;72.76;96961.41;5057711;28;20561;-50
2022/05/19 00:23:06;;;;;;;3.78;3.47;;;;;;;18.23;72.62;96963.25;5057457;28;20637;-50
2022/05/19 00:25:33;;;;;;;3.70;3.40;;;;;;;18.18;73.00;96964.78;5057003;28;20235;-49
2022/05/19 00:28:00;;;;;;;6.53;3.60;;;;;;;18.16;73.38;96958.78;5057623;28;20237;-50
2022/05/19 00:30:26;;;;;;;4.00;3.20;;;;;;;18.09;73.67;96963.22;5057377;28;20207;-50
2022/05/19 00:32:53;;;;;;;4.18;3.50;;;;;;;18.04;74.25;96962.91;5057427;28;20631;-49
2022/05/19 00:35:19;;;;;;;7.03;3.90;;;;;;;18.01;75.12;96964.13;5057420;28;20215;-50
2022/05/19 00:37:48;;;;;;;4.32;3.50;;;;;;;17.97;75.25;96957.47;5045816;28;20216;-49
2022/05/19 00:40:17;;;;;;;3.80;3.50;;;;;;;18.03;74.45;96961.28;5055753;28;20223;-49
2022/05/19 00:42:46;;;;;;;3.90;3.60;;;;;;;17.98;74.25;96963.66;5049285;28;20211;-48
2022/05/19 00:45:15;;;;;;;3.67;3.38;;;;;;;17.96;74.65;96952.31;5056697;28;20225;-50
2022/05/19 00:47:45;;;;;;;4.22;3.22;;;;;;;17.95;74.34;96950.63;5056754;28;20207;-49
2022/05/19 00:50:24;;;;;;;4.20;3.50;;;;;;;17.97;74.47;96956.63;5056844;28;20214;-50
2022/05/19 00:52:53;;;;;;;3.65;3.35;;;;;;;17.94;74.23;96960.50;5056792;28;20203;-51
2022/05/19 00:55:24;;;;;;;4.25;3.60;;;;;;;17.92;74.54;96957.19;5056918;28;20211;-50
2022/05/19 00:57:54;;;;;;;3.70;3.40;;;;;;;17.88;74.92;96959.41;5062783;28;20192;-51
2022/05/19 01:00:22;;;;;;;3.78;3.53;;;;;;;17.77;75.53;96954.47;5069924;28;20218;-49
2022/05/19 01:02:52;;;;;;;3.75;3.45;;;;;;;17.74;76.39;96954.84;5065190;28;20211;-49
2022/05/19 01:05:23;;;;;;;4.55;3.63;;;;;;;17.80;75.10;96959.44;5058741;28;20203;-49
2022/05/19 01:07:56;;;;;;;3.72;3.45;;;;;;;17.66;75.88;96962.91;5056534;28;20248;-50
2022/05/19 01:10:25;;;;;;;3.65;3.35;;;;;;;17.51;77.68;96959.31;5056486;28;20214;-49
2022/05/19 01:12:53;;;;;;;3.92;3.70;;;;;;;17.52;77.63;96957.47;5049238;28;20203;-50
2022/05/19 01:15:22;;;;;;;3.53;3.33;;;;;;;17.48;78.12;96965.00;5056740;28;20222;-50
2022/05/19 01:17:50;;;;;;;3.50;3.30;;;;;;;17.49;77.24;96971.19;5056178;28;20239;-49
2022/05/19 01:20:18;;;;;;;4.75;3.58;;;;;;;17.46;77.58;96967.06;5043401;28;20698;-49
2022/05/19 01:22:53;;;;;;;4.43;4.03;;;;;;;17.40;77.69;96973.09;5056650;28;20218;-49
2022/05/19 01:25:27;;;;;;;3.85;3.60;;;;;;;17.32;78.36;96975.84;5056203;28;20238;-49
2022/05/19 01:27:56;;;;;;;3.90;3.60;;;;;;;17.25;79.68;96974.88;5056466;28;20203;-50
2022/05/19 01:30:23;;;;;;;4.93;3.72;;;;;;;17.27;78.97;96979.03;5056061;28;20253;-49
2022/05/19 01:32:49;;;;;;;4.28;3.53;;;;;;;17.29;78.80;96978.84;5056288;28;20207;-49
2022/05/19 01:35:16;;;;;;;3.80;3.60;;;;;;;17.34;78.27;96984.50;5056208;28;20222;-50
2022/05/19 01:37:42;;;;;;;4.53;3.70;;;;;;;17.25;79.13;96977.56;5056116;28;20230;-49
2022/05/19 01:40:22;;;;;;;4.10;3.80;;;;;;;17.23;79.80;96975.03;5055648;28;20204;-49
2022/05/19 01:42:56;;;;;;;3.78;3.55;;;;;;;17.24;79.00;96973.22;5056064;28;20210;-50
2022/05/19 01:45:34;;;;;;;3.95;3.65;;;;;;;17.25;78.76;96973.00;5056397;28;20229;-50
2022/05/19 01:48:03;;;;;;;4.10;3.80;;;;;;;17.20;79.43;96982.56;5055946;28;20218;-50
2022/05/19 01:50:33;;;;;;;3.70;3.38;;;;;;;17.19;79.37;96980.91;5055936;28;20543;-50
2022/05/19 01:53:03;;;;;;;4.20;4.00;;;;;;;17.17;79.68;96981.09;5055925;28;20203;-50
2022/05/19 01:55:36;;;;;;;5.78;3.70;;;;;;;17.20;79.37;96982.56;5055461;28;20226;-49
2022/05/19 01:58:07;;;;;;;4.65;3.60;;;;;;;17.23;78.58;96976.88;5055485;28;20203;-49
2022/05/19 02:00:34;;;;;;;3.85;3.42;;;;;;;17.21;78.80;96976.22;5055838;28;20210;-50
2022/05/19 02:03:04;;;;;;;3.50;3.30;;;;;;;17.16;78.99;96976.75;5055465;28;20580;-49
2022/05/19 02:05:38;;;;;;;4.18;3.78;;;;;;;17.06;79.87;96983.31;5055133;28;20203;-50
2022/05/19 02:08:08;;;;;;;4.60;3.80;;;;;;;17.00;81.04;96973.34;5055507;28;20206;-50
2022/05/19 02:10:37;;;;;;;4.03;3.70;;;;;;;17.06;80.00;96980.66;5055348;28;20206;-50
2022/05/19 02:13:06;;;;;;;4.22;3.92;;;;;;;17.03;80.09;96981.00;5048446;28;20627;-50
2022/05/19 02:15:36;;;;;;;4.68;3.70;;;;;;;17.02;80.04;96982.00;5055472;28;20203;-50
2022/05/19 02:18:03;;;;;;;4.65;3.83;;;;;;;16.92;81.23;96972.38;5055400;28;20219;-49
2022/05/19 02:20:30;;;;;;;4.20;3.90;;;;;;;16.97;80.38;96977.19;5055285;28;20215;-51
2022/05/19 02:22:58;;;;;;;3.97;3.67;;;;;;;16.95;80.16;96981.88;5055318;28;20214;-50
2022/05/19 02:25:27;;;;;;;3.80;3.40;;;;;;;16.95;80.35;96983.72;5054777;28;20694;-49
2022/05/19 02:27:57;;;;;;;6.32;3.95;;;;;;;16.87;81.41;96979.22;5055269;28;20199;-50
2022/05/19 02:30:27;;;;;;;3.80;3.60;;;;;;;16.91;81.02;96980.56;5052770;28;20214;-50
2022/05/19 02:32:54;;;;;;;5.07;3.67;;;;;;;16.87;80.48;96982.75;5055077;28;20230;-50
2022/05/19 02:35:21;;;;;;;4.00;3.70;;;;;;;16.83;81.48;96981.41;5048587;28;20208;-50
2022/05/19 02:37:48;;;;;;;3.70;3.40;;;;;;;16.83;81.16;96984.09;5048018;28;20728;-48
2022/05/19 02:40:17;;;;;;;4.15;3.90;;;;;;;16.79;81.99;96982.75;5050468;28;20225;-49
2022/05/19 02:42:45;;;;;;;3.65;3.42;;;;;;;16.89;80.57;96985.25;5054323;28;20207;-49
2022/05/19 02:45:13;;;;;;;3.72;3.42;;;;;;;16.78;81.04;96983.78;5055233;28;20215;-49
2022/05/19 02:47:43;;;;;;;4.95;3.65;;;;;;;16.78;80.88;96989.13;5054739;28;20207;-50
2022/05/19 02:50:10;;;;;;;4.13;3.80;;;;;;;16.75;81.47;96988.66;5054517;28;20635;-50
2022/05/19 02:52:37;;;;;;;5.07;3.75;;;;;;;16.69;81.86;97000.84;5054580;28;20214;-49
2022/05/19 02:55:05;;;;;;;3.75;3.50;;;;;;;16.71;81.63;96985.50;5054505;28;20206;-49
2022/05/19 02:57:32;;;;;;;3.83;3.53;;;;;;;16.67;82.09;96994.84;5054112;28;20234;-49
2022/05/19 02:59:59;;;;;;;5.10;3.90;;;;;;;16.62;81.90;96989.19;5054792;28;20578;-50
2022/05/19 03:02:26;;;;;;;3.87;3.57;;;;;;;16.56;82.68;96989.88;5054396;28;20294;-50
2022/05/19 03:04:54;;;;;;;4.25;3.90;;;;;;;16.57;82.81;96994.22;5045890;28;20208;-49
2022/05/19 03:07:20;;;;;;;4.40;3.70;;;;;;;16.57;83.13;96988.88;5048771;28;20234;-50
2022/05/19 03:09:47;;;;;;;4.53;4.18;;;;;;;16.51;83.87;96992.19;5054610;28;20210;-50
2022/05/19 03:12:14;;;;;;;4.17;3.17;;;;;;;16.51;84.06;96994.03;5054508;28;20260;-50
2022/05/19 03:14:41;;;;;;;4.43;4.03;;;;;;;16.59;82.73;96997.53;5052962;28;20230;-50
2022/05/19 03:17:08;;;;;;;4.15;3.75;;;;;;;16.56;82.31;97000.56;5064534;28;20247;-49
2022/05/19 03:19:35;;;;;;;4.13;3.75;;;;;;;16.50;82.57;96998.53;5064658;28;20199;-50
2022/05/19 03:22:03;;;;;;;4.32;3.97;;;;;;;16.43;83.35;97017.09;5058995;28;20859;-49
2022/05/19 03:24:30;;;;;;;4.13;3.72;;;;;;;16.36;83.76;97004.59;5053957;28;20245;-49
2022/05/19 03:26:57;;;;;;;4.03;3.72;;;;;;;16.39;84.18;97001.56;5054320;28;20220;-50
2022/05/19 03:29:23;;;;;;;3.47;3.25;;;;;;;16.41;83.59;97012.91;5054157;28;20230;-49
2022/05/19 03:31:50;;;;;;;4.68;3.65;;;;;;;16.46;82.56;97010.56;5053817;28;20681;-50
2022/05/19 03:34:17;;;;;;;3.90;3.60;;;;;;;16.42;83.00;97014.56;5054524;28;20218;-49
2022/05/19 03:36:44;;;;;;;4.40;4.00;;;;;;;16.33;83.46;97008.41;5051488;28;20219;-50
2022/05/19 03:39:14;;;;;;;4.30;3.90;;;;;;;16.38;82.96;97014.09;5054568;28;20203;-49
2022/05/19 03:41:41;;;;;;;4.43;4.03;;;;;;;16.41;82.61;97027.09;5054345;28;20211;-50
2022/05/19 03:44:07;;;;;;;5.28;3.67;;;;;;;16.36;83.46;97021.44;5054308;28;20207;-50
2022/05/19 03:46:34;;;;;;;4.55;3.95;;;;;;;16.33;83.82;97021.75;5053898;28;20241;-50
2022/05/19 03:49:00;;;;;;;4.23;3.80;;;;;;;16.29;84.13;97019.63;5054468;28;20211;-50
2022/05/19 03:51:29;;;;;;;6.50;4.00;;;;;;;16.21;85.13;97022.28;5054458;28;20203;-50
2022/05/19 03:53:56;;;;;;;5.53;3.90;;;;;;;16.26;84.59;97022.63;5054316;28;20230;-50
2022/05/19 03:56:24;;;;;;;6.18;4.00;;;;;;;16.29;84.54;97024.94;5053992;28;20218;-50
2022/05/19 03:58:51;;;;;;;4.47;4.07;;;;;;;16.33;84.00;97026.28;5054331;28;20222;-50
2022/05/19 04:01:19;;;;;;;4.03;3.63;;;;;;;16.38;83.99;97026.59;5054207;28;20225;-50
2022/05/19 04:03:46;;;;;;;4.40;3.97;;;;;;;16.39;83.57;97036.28;5054154;28;20298;-50
2022/05/19 04:06:12;;;;;;;4.22;3.90;;;;;;;16.41;83.55;97029.75;5053775;28;20207;-50
2022/05/19 04:08:39;;;;;;;4.40;4.00;;;;;;;16.43;83.73;97034.94;5054108;28;20207;-50
2022/05/19 04:11:06;;;;;;;4.70;4.07;;;;;;;16.43;84.66;97033.09;5053828;28;20273;-50
2022/05/19 04:13:33;;;;;;;4.22;3.83;;;;;;;16.45;84.77;97035.59;5046923;28;20572;-50
2022/05/19 04:16:00;;;;;;;5.10;4.10;;;;;;;16.54;84.54;97039.94;5041096;28;20214;-49
2022/05/19 04:18:26;;;;;;;4.90;3.97;;;;;;;16.64;83.71;97045.09;5053901;28;20258;-49
2022/05/19 04:20:53;;;;;;;4.35;3.95;;;;;;;16.71;84.02;97044.25;5057438;28;20631;-50
2022/05/19 04:23:21;;;;;;;4.57;4.10;;;;;;;16.81;83.47;97042.22;5057470;28;20203;-50
2022/05/19 04:25:48;;;;;;;4.13;3.78;;;;;;;16.90;83.86;97051.84;5057093;28;20239;-50
2022/05/19 04:28:14;;;;;;;3.92;3.70;;;;;;;17.07;82.44;97046.47;5057288;28;20681;-51
2022/05/19 04:30:42;;;;;;;5.53;3.70;;;;;;;17.12;82.52;97052.09;5057493;28;20211;-49
2022/05/19 04:33:09;;;;;;;4.05;3.75;;;;;;;17.28;82.31;97057.38;5057317;28;20207;-50
2022/05/19 04:35:36;;;;;;;4.57;3.80;;;;;;;17.46;81.98;97052.63;5057157;28;20207;-51
2022/05/19 04:38:06;;;;;;;5.30;4.18;;;;;;;17.66;81.99;97059.19;5056730;28;20690;-49
2022/05/19 04:40:36;;;;;;;8.38;4.05;;;;;;;17.82;79.61;97064.44;5057511;28;20207;-49
2022/05/19 04:43:03;;;;;;;5.78;3.90;;;;;;;18.07;79.35;97061.56;5057520;28;20264;-50
2022/05/19 04:45:29;;;;;;;4.68;3.90;;;;;;;18.20;79.66;97067.19;5056469;28;20289;-49
2022/05/19 04:47:57;;;;;;;4.13;3.80;;;;;;;18.42;78.23;97074.34;5056783;28;20589;-50
2022/05/19 04:50:24;;;;;;;5.00;4.30;;;;;;;18.48;77.74;97062.91;5056465;28;20203;-50
2022/05/19 04:52:50;;;;;;;4.35;3.88;;;;;;;18.54;78.65;97074.75;5052216;28;20302;-50
2022/05/19 04:55:17;;;;;;;6.28;3.90;;;;;;;18.56;78.14;97084.28;5057113;28;20211;-50
2022/05/19 04:57:44;;;;;;;5.28;4.35;;;;;;;18.66;76.54;97079.50;5056402;28;20235;-49
2022/05/19 05:00:13;;;;;;;4.93;4.43;;;;;;;18.57;78.91;97080.59;5056825;28;20214;-50
2022/05/19 05:02:40;;;;;;;4.03;3.72;;;;;;;18.64;79.61;97080.69;5056382;28;20203;-50
2022/05/19 05:05:09;;;;;;;5.68;4.50;;;;;;;18.80;78.10;97084.06;5056632;28;20203;-50
2022/05/19 05:07:35;;;;;;;5.07;4.05;;;;;;;18.81;79.58;97077.66;5054391;28;20218;-50
2022/05/19 05:10:04;;;;;;;6.05;4.60;;;;;;;18.85;79.53;97084.31;5056526;28;20207;-50
2022/05/19 05:12:30;;;;;;;4.63;4.07;;;;;;;18.99;79.08;97090.69;5051576;28;20295;-50
2022/05/19 05:14:57;;;;;;;4.63;4.22;;;;;;;18.94;79.08;97085.06;5053920;28;20211;-50
2022/05/19 05:17:23;;;;;;;6.32;4.32;;;;;;;19.00;78.73;97092.38;5055972;28;20227;-50
2022/05/19 05:19:50;;;;;;;4.45;4.07;;;;;;;19.20;78.74;97088.09;5044568;28;20212;-50
2022/05/19 05:22:18;;;;;;;4.72;3.95;;;;;;;19.43;76.24;97096.06;5054918;28;20214;-50
2022/05/19 05:24:44;;;;;;;5.97;4.22;;;;;;;19.39;77.65;97103.63;5055464;28;20714;-50
2022/05/19 05:27:14;;;;;;;7.57;4.63;;;;;;;19.43;77.05;97111.34;5055405;28;20218;-49
2022/05/19 05:29:40;;;;;;;5.80;4.20;;;;;;;19.64;76.43;97117.59;5056244;28;20215;-50
2022/05/19 05:32:08;;;;;;;5.03;4.47;;;;;;;19.62;77.70;97114.28;5058172;28;20222;-50
2022/05/19 05:34:35;;;;;;;4.55;4.13;;;;;;;19.80;75.65;97117.34;5063311;28;20203;-51
2022/05/19 05:37:03;;;;;;;5.28;4.32;;;;;;;20.08;75.10;97120.16;5063025;28;20218;-50
2022/05/19 05:39:31;;;;;;;5.03;4.63;;;;;;;20.22;71.74;97123.81;5064905;28;20211;-50
2022/05/19 05:41:58;;;;;;;5.82;4.88;;;;;;;20.52;69.33;97122.69;5057770;28;20273;-49
2022/05/19 05:44:25;;;;;;;7.50;4.68;;;;;;;20.78;68.22;97116.69;5056474;28;20207;-50
2022/05/19 05:46:52;;;;;;;6.82;4.80;;;;;;;21.03;67.08;97133.22;5041520;28;20245;-50
2022/05/19 05:49:18;;;;;;;4.22;3.85;;;;;;;21.45;64.71;97125.03;5056819;28;20211;-48
2022/05/19 05:51:46;;;;;;;4.80;4.30;;;;;;;21.69;64.64;97134.44;5056680;28;20587;-51
2022/05/19 05:54:12;;;;;;;5.80;4.10;;;;;;;21.97;61.40;97134.38;5056716;28;20569;-50
2022/05/19 05:56:40;;;;;;;5.13;4.45;;;;;;;21.97;63.83;97134.38;5056545;28;20654;-49
2022/05/19 05:59:08;;;;;;;5.65;4.00;;;;;;;22.21;62.42;97136.53;5056860;28;20227;-50
2022/05/19 06:01:35;;;;;;;13.43;4.38;;;;;;;22.63;60.56;97136.19;5057735;28;20293;-50
2022/05/19 06:04:02;;;;;;;5.57;4.40;;;;;;;22.81;59.72;97141.78;5056147;28;20217;-50
2022/05/19 06:06:32;;;;;;;4.63;4.22;;;;;;;22.90;57.33;97153.22;5055931;28;20203;-50
2022/05/19 06:09:01;;;;;;;8.95;4.28;;;;;;;23.14;56.86;97149.03;5055651;28;20203;-50
2022/05/19 06:11:28;;;;;;;9.02;4.35;;;;;;;23.40;56.12;97151.69;5055873;28;20203;-50
2022/05/19 06:13:56;;;;;;;9.60;4.00;;;;;;;23.39;55.49;97152.72;5055863;28;20222;-51
2022/05/19 06:16:23;;;;;;;5.75;4.30;;;;;;;23.55;56.30;97155.03;5055714;28;20214;-50
2022/05/19 06:18:50;;;;;;;4.20;3.80;;;;;;;23.64;55.76;97151.03;5055608;28;20596;-51
2022/05/19 06:21:16;;;;;;;4.53;4.13;;;;;;;23.89;55.76;97158.44;5055621;28;20203;-49
2022/05/19 06:23:44;;;;;;;5.85;4.00;;;;;;;24.14;55.00;97156.69;5055557;28;20285;-50
2022/05/19 06:26:11;;;;;;;4.88;4.15;;;;;;;24.17;54.54;97156.25;5055002;28;20246;-50
2022/05/19 06:28:38;;;;;;;4.38;3.97;;;;;;;24.40;53.83;97153.84;5055477;28;20575;-50
2022/05/19 06:31:06;;;;;;;5.88;4.38;;;;;;;24.54;53.17;97150.00;5055464;28;20211;-50
2022/05/19 06:33:35;;;;;;;5.65;4.25;;;;;;;24.77;51.22;97157.53;5055442;28;20293;-50
2022/05/19 06:36:02;;;;;;;4.60;4.03;;;;;;;24.71;52.33;97147.59;5055651;28;20261;-49
2022/05/19 06:38:29;;;;;;;7.43;4.65;;;;;;;24.82;51.87;97156.88;5054182;28;20250;-49
2022/05/19 06:42:00;;;;;;;5.22;3.72;;;;;;;25.05;51.92;97151.72;5056485;28;20206;-49
2022/05/19 06:43:43;;;;;;;7.05;4.35;;;;;;;25.13;51.01;97162.25;5042428;28;20290;-50
2022/05/19 06:46:12;;;;;;;6.85;4.53;;;;;;;25.33;50.16;97157.47;5054915;28;20210;-50
2022/05/19 06:48:39;;;;;;;4.63;3.85;;;;;;;25.29;49.29;97159.00;5054821;28;20627;-49
2022/05/19 06:51:06;;;;;;;4.78;4.32;;;;;;;25.45;47.93;97155.72;5055078;28;20203;-50
2022/05/19 06:53:33;;;;;;;4.63;4.22;;;;;;;25.27;50.35;97161.09;5054939;28;20211;-49
2022/05/19 06:56:02;;;;;;;7.85;3.90;;;;;;;25.79;49.94;97150.81;5054756;28;20203;-50
2022/05/19 06:58:28;;;;;;;5.28;4.40;;;;;;;25.69;50.72;97154.84;5054893;28;20230;-50
2022/05/19 07:00:55;;;;;;;6.28;4.10;;;;;;;25.83;51.71;97160.09;5054829;28;20594;-49
2022/05/19 07:03:22;;;;;;;9.20;4.70;;;;;;;25.86;49.92;97168.63;5055062;28;20578;-49
2022/05/19 07:05:50;;;;;;;4.30;3.85;;;;;;;26.25;48.32;97167.34;5054755;28;20203;-49
2022/05/19 07:08:16;;;;;;;8.20;4.15;;;;;;;26.52;48.64;97160.50;5055044;28;20203;-49
2022/05/19 07:10:43;;;;;;;5.60;4.15;;;;;;;26.54;46.40;97161.06;5054991;28;20210;-49
2022/05/19 07:13:09;;;;;;;5.97;4.30;;;;;;;26.59;47.90;97163.94;5054850;28;20199;-49
2022/05/19 07:15:36;;;;;;;6.63;4.25;;;;;;;26.62;48.34;97168.88;5055007;28;20218;-50
2022/05/19 07:18:04;;;;;;;4.63;4.07;;;;;;;26.84;49.57;97168.38;5054818;28;20679;-50
2022/05/19 07:20:47;;;;;;;4.80;4.18;;;;;;;27.30;45.79;97160.31;5055543;28;20218;-50
2022/05/19 07:23:15;;;;;;;5.32;4.25;;;;;;;27.40;47.48;97165.97;5055134;28;20278;-49
2022/05/19 07:25:44;;;;;;;6.32;4.95;;;;;;;27.43;44.01;97170.09;5054697;28;20322;-50
2022/05/19 07:28:10;;;;;;;7.38;4.10;;;;;;;27.82;44.55;97180.25;5055211;28;20222;-49
2022/05/19 07:30:37;;;;;;;4.88;4.00;;;;;;;27.88;45.33;97173.06;5055467;28;20203;-49
2022/05/19 07:33:04;;;;;;;4.10;3.80;;;;;;;28.40;43.06;97171.97;5056376;28;20203;-51
2022/05/19 07:35:32;;;;;;;9.63;4.10;;;;;;;28.43;43.96;97171.47;5061202;28;20203;-50
2022/05/19 07:37:58;;;;;;;5.82;3.85;;;;;;;28.32;44.51;97164.19;5064439;28;20230;-50
2022/05/19 07:40:24;;;;;;;5.47;4.22;;;;;;;28.32;44.85;97172.34;5059148;28;20214;-49
2022/05/19 07:42:51;;;;;;;6.40;4.30;;;;;;;28.16;46.32;97165.78;5056869;28;20211;-49
2022/05/19 07:45:18;;;;;;;9.27;4.30;;;;;;;28.40;44.45;97168.41;5045735;28;20211;-52
2022/05/19 07:47:46;;;;;;;7.40;4.30;;;;;;;28.71;43.63;97170.66;5058239;28;20211;-50
2022/05/19 07:50:13;;;;;;;5.80;4.15;;;;;;;28.69;42.68;97169.28;5047758;28;20762;-50
2022/05/19 07:52:41;;;;;;;7.82;4.43;;;;;;;28.56;42.87;97175.78;5059102;28;20239;-49
2022/05/19 07:55:09;;;;;;;7.22;4.15;;;;;;;28.82;43.16;97166.22;5058653;28;20214;-51
2022/05/19 07:57:35;;;;;;;6.00;4.28;;;;;;;28.88;44.28;97173.41;5058993;28;20199;-50
2022/05/19 08:00:03;;;;;;;4.82;4.32;;;;;;;29.15;42.47;97174.44;5058229;28;20284;-49
2022/05/19 08:02:32;;;;;;;8.43;4.78;;;;;;;29.13;44.66;97169.22;5057805;28;20238;-50
2022/05/19 08:04:58;;;;;;;7.05;4.35;;;;;;;29.08;44.18;97165.59;5057772;28;20627;-49
2022/05/19 08:07:25;;;;;;;5.72;4.07;;;;;;;29.35;42.56;97171.22;5057786;28;20214;-51
2022/05/19 08:15:38;;;;;;;7.38;4.32;;;;;;;29.82;41.05;97171.66;5057590;28;20218;-51
2022/05/19 08:18:08;;;;;;;4.35;3.97;;;;;;;29.78;40.36;97168.59;5057533;28;20306;-51
2022/05/19 08:20:35;;;;;;;7.10;4.25;;;;;;;30.09;40.00;97159.75;5057246;28;20203;-50
2022/05/19 08:23:02;;;;;;;5.13;3.88;;;;;;;29.89;39.91;97169.59;5057513;28;20246;-50
2022/05/19 08:25:30;;;;;;;4.50;3.80;;;;;;;29.77;40.23;97166.13;5057232;28;20273;-50
2022/05/19 08:27:58;;;;;;;6.43;3.75;;;;;;;29.92;40.25;97163.63;5057423;28;20203;-51
2022/05/19 08:30:25;;;;;;;4.65;3.90;;;;;;;30.06;42.57;97170.34;5057628;28;20199;-51
2022/05/19 08:32:52;;;;;;;5.32;3.60;;;;;;;29.97;41.34;97167.22;5057490;28;20538;-52
2022/05/19 08:35:20;;;;;;;6.70;3.95;;;;;;;29.79;40.43;97164.81;5057486;28;20276;-52
2022/05/19 08:37:47;;;;;;;4.20;3.85;;;;;;;30.08;41.31;97162.72;5056276;28;20203;-50
2022/05/19 08:40:14;;;;;;;5.75;3.90;;;;;;;30.33;42.62;97160.31;5057110;28;20704;-51
2022/05/19 08:42:46;;;;;;;5.80;3.80;;;;;;;30.23;41.36;97149.28;5057004;28;20646;-51
2022/05/19 08:45:18;;;;;;;6.30;3.75;;;;;;;30.39;39.68;97153.03;5044007;28;20536;-51
2022/05/19 08:47:46;;;;;;;3.78;3.42;;;;;;;30.36;39.90;97146.16;5057262;28;20203;-50
2022/05/19 08:50:30;;;;;;;4.30;3.83;;;;;;;30.56;39.76;97143.69;5057270;28;20203;-51
2022/05/19 08:52:56;;;;;;;5.47;3.65;;;;;;;30.53;38.45;97149.66;5056791;28;20616;-51
2022/05/19 08:55:25;;;;;;;3.78;3.47;;;;;;;30.93;37.92;97137.44;5057082;28;20230;-49
2022/05/19 08:58:04;;;;;;;4.97;3.40;;;;;;;30.78;39.40;97145.53;5056831;28;20207;-50
2022/05/19 09:00:38;;;;;;;4.45;3.60;;;;;;;30.83;40.68;97143.66;5057223;28;20206;-50
2022/05/19 09:03:10;;;;;;;3.90;3.00;;;;;;;30.78;37.76;97140.06;5044020;28;20222;-50
2022/05/19 09:05:48;;;;;;;4.13;3.40;;;;;;;30.74;38.05;97141.66;5057046;28;20199;-50
2022/05/19 09:08:25;;;;;;;4.82;3.60;;;;;;;30.90;39.74;97140.72;5056866;28;20194;-50
2022/05/19 09:10:58;;;;;;;7.35;3.90;;;;;;;30.77;38.98;97135.69;5056735;28;20643;-50
2022/05/19 09:13:32;;;;;;;6.55;4.03;;;;;;;30.90;41.01;97138.81;5057044;28;20219;-51
2022/05/19 09:16:00;;;;;;;5.38;3.53;;;;;;;31.08;41.74;97134.88;5043426;28;20263;-51
2022/05/19 09:18:32;;;;;;;4.00;3.40;;;;;;;31.38;38.10;97132.41;5056789;28;20239;-50
2022/05/19 09:21:00;;;;;;;4.15;3.38;;;;;;;31.23;39.57;97129.53;5056829;28;20637;-52
2022/05/19 09:23:27;;;;;;;5.72;3.80;;;;;;;31.20;40.65;97129.25;5056955;28;20203;-50
2022/05/19 09:25:59;;;;;;;4.85;3.47;;;;;;;31.32;40.09;97125.22;5056484;28;20235;-50
2022/05/19 09:28:25;;;;;;;5.28;3.38;;;;;;;31.46;39.43;97133.81;5056662;28;20195;-51
2022/05/19 09:30:55;;;;;;;6.53;4.10;;;;;;;31.75;37.25;97126.88;5056755;28;20211;-50
2022/05/19 09:33:30;;;;;;;5.60;3.60;;;;;;;32.05;38.33;97126.22;5056613;28;20218;-50
2022/05/19 09:35:58;;;;;;;4.95;3.53;;;;;;;32.26;35.63;97125.22;5056064;28;20206;-50
2022/05/19 09:38:27;;;;;;;5.35;3.70;;;;;;;31.87;36.68;97116.56;5056453;28;20265;-51
2022/05/19 09:40:57;;;;;;;4.13;3.72;;;;;;;31.87;36.98;97116.56;5057126;28;20207;-51
2022/05/19 09:43:27;;;;;;;4.75;3.42;;;;;;;32.12;38.16;97104.94;5056385;28;20204;-50
2022/05/19 09:46:04;;;;;;;4.95;3.80;;;;;;;32.11;39.31;97118.88;5056191;28;20200;-49
2022/05/19 09:48:34;;;;;;;4.28;3.88;;;;;;;32.44;36.43;97108.31;5043469;28;20203;-49
2022/05/19 09:51:03;;;;;;;4.60;4.18;;;;;;;32.69;36.26;97110.28;5056371;28;20291;-51
2022/05/19 09:53:37;;;;;;;5.22;3.78;;;;;;;32.49;35.40;97107.47;5056161;28;20215;-50
2022/05/19 09:56:05;;;;;;;5.07;3.55;;;;;;;32.33;38.30;97109.38;5056172;28;20217;-50
2022/05/19 09:58:33;;;;;;;6.22;3.47;;;;;;;32.14;36.97;97104.63;5057940;28;20227;-51
2022/05/19 10:01:05;;;;;;;11.60;4.00;;;;;;;31.99;38.18;97108.13;5062284;28;20647;-50
2022/05/19 10:03:35;;;;;;;4.93;3.80;;;;;;;32.00;37.13;97105.13;5058507;28;20203;-52
2022/05/19 10:06:05;;;;;;;5.82;3.83;;;;;;;32.16;37.74;97100.56;5056712;28;20199;-50
2022/05/19 10:08:37;;;;;;;5.15;3.58;;;;;;;32.27;36.98;97104.16;5055772;28;20233;-52
2022/05/19 10:11:05;;;;;;;4.53;3.80;;;;;;;32.29;37.00;97102.78;5055773;28;20198;-50
2022/05/19 10:13:39;;;;;;;3.88;3.30;;;;;;;31.99;36.36;97100.72;5048903;28;20226;-51
2022/05/19 10:16:14;;;;;;;3.85;3.50;;;;;;;32.40;37.31;97098.16;5043244;28;20227;-51
2022/05/19 10:18:54;;;;;;;3.50;3.20;;;;;;;32.44;37.68;97089.13;5055206;28;20210;-51
2022/05/19 10:21:37;;;;;;;4.60;3.65;;;;;;;32.17;39.20;97093.97;5054568;28;20207;-49
2022/05/19 10:24:24;;;;;;;5.80;3.58;;;;;;;32.39;35.96;97089.13;5055635;28;20227;-50
2022/05/19 10:31:02;;;;;;;5.72;3.40;;;;;;;32.51;37.94;97088.88;5056232;28;20639;-50
2022/05/19 10:32:57;;;;;;;3.60;3.30;;;;;;;32.39;38.17;97074.59;5045701;28;20210;-51
2022/05/19 10:35:29;;;;;;;5.28;3.30;;;;;;;32.78;37.47;97073.03;5040862;28;20206;-50
2022/05/19 10:38:11;;;;;;;4.07;3.42;;;;;;;33.10;35.86;97075.47;5055063;28;20234;-50
2022/05/19 10:40:45;;;;;;;4.43;3.72;;;;;;;33.20;35.60;97071.94;5055585;28;20215;-49
2022/05/19 10:43:32;;;;;;;4.60;3.55;;;;;;;33.01;37.66;97067.00;5051436;28;20218;-50
2022/05/19 10:46:01;;;;;;;3.90;3.50;;;;;;;33.22;37.79;97065.09;5064038;28;20203;-50
2022/05/19 10:48:53;;;;;;;3.90;3.47;;;;;;;33.50;34.70;97059.00;5041022;28;20587;-51
2022/05/19 10:51:30;;;;;;;4.43;4.00;;;;;;;33.36;36.09;97060.69;5055146;28;20203;-50
2022/05/19 10:54:10;;;;;;;4.07;3.45;;;;;;;33.44;36.29;97062.81;5054085;28;20205;-52
2022/05/19 10:56:53;;;;;;;6.15;3.70;;;;;;;33.35;34.79;97055.44;5042629;28;20534;-50
2022/05/19 10:59:37;;;;;;;4.97;3.40;;;;;;;33.50;34.08;97058.16;5053626;28;20655;-50
2022/05/19 11:02:18;;;;;;;4.82;3.80;;;;;;;33.28;34.57;97049.44;5054773;28;20238;-49
2022/05/19 11:05:00;;;;;;;3.70;3.40;;;;;;;33.55;33.83;97047.16;5042855;28;20221;-51
2022/05/19 11:07:36;;;;;;;8.07;3.65;;;;;;;33.61;34.89;97043.31;5055215;28;20199;-51
2022/05/19 11:10:12;;;;;;;5.20;3.60;;;;;;;33.61;34.93;97040.56;5054946;28;20198;-51
2022/05/19 11:12:45;;;;;;;5.07;3.80;;;;;;;33.63;34.72;97041.13;5054781;28;20604;-50
2022/05/19 11:15:19;;;;;;;4.07;3.78;;;;;;;33.29;35.66;97034.63;5054928;28;20205;-51
2022/05/19 11:17:56;;;;;;;4.15;3.80;;;;;;;33.50;35.33;97037.06;5054850;28;20210;-51
2022/05/19 11:20:29;;;;;;;3.85;3.55;;;;;;;33.59;35.72;97033.72;5055007;28;20222;-50
2022/05/19 11:23:02;;;;;;;4.13;3.78;;;;;;;33.48;33.98;97036.50;5054916;28;20223;-51
2022/05/19 11:28:21;;;;;;;5.90;4.20;;;;;;;33.43;34.48;97028.28;5054560;28;20205;-50
2022/05/19 11:30:50;;;;;;;3.60;3.35;;;;;;;33.53;34.85;97031.00;5058684;28;20199;-50
2022/05/19 11:33:20;;;;;;;5.80;3.60;;;;;;;33.72;33.86;97030.41;5057661;28;20697;-50
2022/05/19 11:35:55;;;;;;;3.60;3.30;;;;;;;33.69;34.06;97025.50;5058923;28;20203;-50
2022/05/19 11:38:25;;;;;;;6.43;3.40;;;;;;;33.86;31.94;97028.69;5058433;28;20634;-49
2022/05/19 11:40:57;;;;;;;3.05;2.83;;;;;;;33.79;30.56;97022.69;5058648;28;20658;-49
2022/05/19 11:43:29;;;;;;;4.70;3.13;;;;;;;33.32;31.33;97029.41;5059316;28;20195;-51
2022/05/19 11:46:00;;;;;;;3.60;3.22;;;;;;;33.35;33.10;97028.84;5058603;28;20261;-51
2022/05/19 11:57:04;;;;;;;4.38;3.65;;;;;;;32.11;34.91;97032.13;5058381;28;20277;-50
2022/05/19 11:59:32;;;;;;;4.93;3.25;;;;;;;31.83;36.34;97038.84;5058506;28;20226;-50
2022/05/19 12:01:59;;;;;;;4.05;3.60;;;;;;;31.47;36.98;97035.13;5058154;28;20690;-50
2022/05/19 12:04:28;;;;;;;4.05;3.65;;;;;;;31.73;38.72;97032.53;5058657;28;20213;-50